sensor_id;sensor_type;location;lat;lon;timestamp;temperature;humidity
16040;DHT22;8124;48.634;8.120;2022-12-29T00:02:43;14.70;99.90
16040;DHT22;8124;48.634;8.120;2022-12-29T00:07:47;14.80;99.90
16040;DHT22;8124;48.634;8.120;2022-12-29T00:12:50;14.70;99.90
16040;DHT22;8124;48.634;8.120;2022-12-29T00:18:11;14.70;99.90
16040;DHT22;8124;48.634;8.120;2022-12-29T00:23:16;14.80;99.90
16040;DHT22;8124;48.634;8.120;2022-12-29T00:28:36;14.80;99.90
16040;DHT22;8124;48.634;8.120;2022-12-29T00:33:56;14.80;99.90
16040;DHT22;8124;48.634;8.120;2022-12-29T00:39:19;14.80;99.90
16040;DHT22;8124;48.634;8.120;2022-12-29T00:44:39;14.70;99.90
16040;DHT22;8124;48.634;8.120;2022-12-29T00:49:44;14.70;99.90
16040;DHT22;8124;48.634;8.120;2022-12-29T00:54:48;14.70;99.90
16040;DHT22;8124;48.634;8.120;2022-12-29T00:59:51;14.70;99.90
16040;DHT22;8124;48.634;8.120;2022-12-29T01:04:54;14.70;99.90
16040;DHT22;8124;48.634;8.120;2022-12-29T01:09:58;14.70;99.90
16040;DHT22;8124;48.634;8.120;2022-12-29T01:15:14;14.60;99.90
16040;DHT22;8124;48.634;8.120;2022-12-29T01:20:19;14.50;99.90
16040;DHT22;8124;48.634;8.120;2022-12-29T01:25:23;14.60;99.90
16040;DHT22;8124;48.634;8.120;2022-12-29T01:30:26;14.60;99.90
16040;DHT22;8124;48.634;8.120;2022-12-29T01:35:29;14.60;99.90
16040;DHT22;8124;48.634;8.120;2022-12-29T01:40:34;14.60;99.90
16040;DHT22;8124;48.634;8.120;2022-12-29T01:45:36;14.60;99.90
16040;DHT22;8124;48.634;8.120;2022-12-29T01:50:42;14.60;99.90
16040;DHT22;8124;48.634;8.120;2022-12-29T01:55:49;14.50;99.90
16040;DHT22;8124;48.634;8.120;2022-12-29T02:00:54;14.50;99.90
16040;DHT22;8124;48.634;8.120;2022-12-29T02:06:01;14.40;99.90
16040;DHT22;8124;48.634;8.120;2022-12-29T02:11:07;14.50;99.90
16040;DHT22;8124;48.634;8.120;2022-12-29T02:16:22;14.50;99.90
16040;DHT22;8124;48.634;8.120;2022-12-29T02:21:56;14.50;99.90
16040;DHT22;8124;48.634;8.120;2022-12-29T02:32:51;14.50;99.90
16040;DHT22;8124;48.634;8.120;2022-12-29T02:38:02;14.50;99.90
16040;DHT22;8124;48.634;8.120;2022-12-29T02:43:20;14.50;99.90
16040;DHT22;8124;48.634;8.120;2022-12-29T02:48:31;14.40;99.90
16040;DHT22;8124;48.634;8.120;2022-12-29T02:53:36;14.50;99.90
16040;DHT22;8124;48.634;8.120;2022-12-29T02:58:57;14.50;99.90
16040;DHT22;8124;48.634;8.120;2022-12-29T03:04:25;14.50;99.90
16040;DHT22;8124;48.634;8.120;2022-12-29T03:09:40;14.40;99.90
16040;DHT22;8124;48.634;8.120;2022-12-29T03:14:55;14.50;99.90
16040;DHT22;8124;48.634;8.120;2022-12-29T03:20:23;14.50;99.90
16040;DHT22;8124;48.634;8.120;2022-12-29T03:25:31;14.50;99.90
16040;DHT22;8124;48.634;8.120;2022-12-29T03:30:38;14.50;99.90
16040;DHT22;8124;48.634;8.120;2022-12-29T03:35:45;14.60;99.90
16040;DHT22;8124;48.634;8.120;2022-12-29T03:40:52;14.50;99.90
16040;DHT22;8124;48.634;8.120;2022-12-29T03:46:00;14.50;99.90
16040;DHT22;8124;48.634;8.120;2022-12-29T03:51:04;14.50;99.90
16040;DHT22;8124;48.634;8.120;2022-12-29T03:56:08;14.40;99.90
16040;DHT22;8124;48.634;8.120;2022-12-29T04:01:11;14.40;99.90
16040;DHT22;8124;48.634;8.120;2022-12-29T04:06:16;14.50;99.90
16040;DHT22;8124;48.634;8.120;2022-12-29T04:11:28;14.40;99.90
16040;DHT22;8124;48.634;8.120;2022-12-29T04:16:36;14.30;99.90
16040;DHT22;8124;48.634;8.120;2022-12-29T04:21:42;14.40;99.90
16040;DHT22;8124;48.634;8.120;2022-12-29T04:26:45;14.40;99.90
16040;DHT22;8124;48.634;8.120;2022-12-29T04:32:08;14.20;99.90
16040;DHT22;8124;48.634;8.120;2022-12-29T04:37:19;14.20;99.90
16040;DHT22;8124;48.634;8.120;2022-12-29T04:42:22;14.10;99.90
16040;DHT22;8124;48.634;8.120;2022-12-29T04:47:26;14.10;99.90
16040;DHT22;8124;48.634;8.120;2022-12-29T04:52:50;14.20;99.90
16040;DHT22;8124;48.634;8.120;2022-12-29T04:57:53;14.10;99.90
16040;DHT22;8124;48.634;8.120;2022-12-29T05:02:56;14.20;99.90
16040;DHT22;8124;48.634;8.120;2022-12-29T05:08:01;14.30;99.90
16040;DHT22;8124;48.634;8.120;2022-12-29T05:13:05;14.30;99.90
16040;DHT22;8124;48.634;8.120;2022-12-29T05:18:08;14.40;99.90
16040;DHT22;8124;48.634;8.120;2022-12-29T05:23:13;14.40;99.90
16040;DHT22;8124;48.634;8.120;2022-12-29T05:28:16;14.40;99.90
16040;DHT22;8124;48.634;8.120;2022-12-29T05:33:24;14.40;99.90
16040;DHT22;8124;48.634;8.120;2022-12-29T05:38:34;14.40;99.90
16040;DHT22;8124;48.634;8.120;2022-12-29T05:43:38;14.30;99.90
16040;DHT22;8124;48.634;8.120;2022-12-29T05:48:54;14.30;99.90
16040;DHT22;8124;48.634;8.120;2022-12-29T05:54:10;14.40;99.90
16040;DHT22;8124;48.634;8.120;2022-12-29T05:59:15;14.40;99.90
16040;DHT22;8124;48.634;8.120;2022-12-29T06:04:18;14.30;99.90
16040;DHT22;8124;48.634;8.120;2022-12-29T06:09:23;14.30;99.90
16040;DHT22;8124;48.634;8.120;2022-12-29T06:14:27;14.40;99.90
16040;DHT22;8124;48.634;8.120;2022-12-29T06:19:32;14.30;99.90
16040;DHT22;8124;48.634;8.120;2022-12-29T06:24:37;14.40;99.90
16040;DHT22;8124;48.634;8.120;2022-12-29T06:29:40;14.40;99.90
16040;DHT22;8124;48.634;8.120;2022-12-29T06:34:44;14.50;99.90
16040;DHT22;8124;48.634;8.120;2022-12-29T06:39:49;14.30;99.90
16040;DHT22;8124;48.634;8.120;2022-12-29T06:44:51;14.40;99.90
16040;DHT22;8124;48.634;8.120;2022-12-29T06:49:54;14.40;99.90
16040;DHT22;8124;48.634;8.120;2022-12-29T06:54:59;14.50;99.90
16040;DHT22;8124;48.634;8.120;2022-12-29T07:00:02;14.40;99.90
16040;DHT22;8124;48.634;8.120;2022-12-29T07:05:07;14.40;99.90
16040;DHT22;8124;48.634;8.120;2022-12-29T07:10:12;14.50;99.90
16040;DHT22;8124;48.634;8.120;2022-12-29T07:15:15;14.50;99.90
16040;DHT22;8124;48.634;8.120;2022-12-29T07:20:18;14.50;99.90
16040;DHT22;8124;48.634;8.120;2022-12-29T07:25:28;14.60;99.90
16040;DHT22;8124;48.634;8.120;2022-12-29T07:30:32;14.50;99.90
16040;DHT22;8124;48.634;8.120;2022-12-29T07:35:35;14.60;99.90
16040;DHT22;8124;48.634;8.120;2022-12-29T07:40:39;14.60;99.90
16040;DHT22;8124;48.634;8.120;2022-12-29T07:45:42;14.70;99.90
16040;DHT22;8124;48.634;8.120;2022-12-29T07:50:45;14.70;99.90
16040;DHT22;8124;48.634;8.120;2022-12-29T07:55:49;14.70;99.90
16040;DHT22;8124;48.634;8.120;2022-12-29T08:00:53;14.70;99.90
16040;DHT22;8124;48.634;8.120;2022-12-29T08:05:56;14.80;99.90
16040;DHT22;8124;48.634;8.120;2022-12-29T08:11:01;14.80;99.90
16040;DHT22;8124;48.634;8.120;2022-12-29T08:16:04;14.90;99.90
16040;DHT22;8124;48.634;8.120;2022-12-29T08:21:08;14.90;99.90
16040;DHT22;8124;48.634;8.120;2022-12-29T08:26:13;14.90;99.90
16040;DHT22;8124;48.634;8.120;2022-12-29T08:31:15;14.90;99.90
16040;DHT22;8124;48.634;8.120;2022-12-29T08:36:18;14.90;99.90
16040;DHT22;8124;48.634;8.120;2022-12-29T08:41:23;14.90;99.90
16040;DHT22;8124;48.634;8.120;2022-12-29T08:46:26;14.90;99.90
16040;DHT22;8124;48.634;8.120;2022-12-29T08:51:29;14.90;99.90
16040;DHT22;8124;48.634;8.120;2022-12-29T08:56:33;14.90;99.90
16040;DHT22;8124;48.634;8.120;2022-12-29T09:01:36;14.80;99.90
16040;DHT22;8124;48.634;8.120;2022-12-29T09:06:43;14.80;99.90
16040;DHT22;8124;48.634;8.120;2022-12-29T09:11:47;14.80;99.90
16040;DHT22;8124;48.634;8.120;2022-12-29T09:16:50;14.80;99.90
16040;DHT22;8124;48.634;8.120;2022-12-29T09:22:12;14.90;99.90
16040;DHT22;8124;48.634;8.120;2022-12-29T09:27:16;14.80;99.90
16040;DHT22;8124;48.634;8.120;2022-12-29T09:32:19;14.80;99.90
16040;DHT22;8124;48.634;8.120;2022-12-29T09:37:24;14.80;99.90
16040;DHT22;8124;48.634;8.120;2022-12-29T09:42:35;14.90;99.90
16040;DHT22;8124;48.634;8.120;2022-12-29T09:47:41;14.90;99.90
16040;DHT22;8124;48.634;8.120;2022-12-29T09:52:48;14.80;99.90
16040;DHT22;8124;48.634;8.120;2022-12-29T09:57:57;14.70;99.90
16040;DHT22;8124;48.634;8.120;2022-12-29T10:03:09;14.70;99.90
16040;DHT22;8124;48.634;8.120;2022-12-29T10:08:27;14.70;99.90
16040;DHT22;8124;48.634;8.120;2022-12-29T10:13:43;14.70;99.90
16040;DHT22;8124;48.634;8.120;2022-12-29T10:19:28;14.60;99.90
16040;DHT22;8124;48.634;8.120;2022-12-29T10:24:38;14.70;99.90
16040;DHT22;8124;48.634;8.120;2022-12-29T10:29:48;14.80;99.90
16040;DHT22;8124;48.634;8.120;2022-12-29T10:34:55;14.90;99.90
16040;DHT22;8124;48.634;8.120;2022-12-29T10:40:09;14.90;99.90
16040;DHT22;8124;48.634;8.120;2022-12-29T10:45:22;14.90;99.90
16040;DHT22;8124;48.634;8.120;2022-12-29T10:50:27;14.90;99.90
16040;DHT22;8124;48.634;8.120;2022-12-29T10:55:33;14.70;99.90
16040;DHT22;8124;48.634;8.120;2022-12-29T11:00:39;14.50;99.90
16040;DHT22;8124;48.634;8.120;2022-12-29T11:05:48;14.40;99.90
16040;DHT22;8124;48.634;8.120;2022-12-29T11:11:01;14.40;99.90
16040;DHT22;8124;48.634;8.120;2022-12-29T11:16:05;14.20;99.90
16040;DHT22;8124;48.634;8.120;2022-12-29T11:21:31;14.20;99.90
16040;DHT22;8124;48.634;8.120;2022-12-29T11:26:34;14.20;99.90
16040;DHT22;8124;48.634;8.120;2022-12-29T11:31:42;14.10;99.90
16040;DHT22;8124;48.634;8.120;2022-12-29T11:36:46;14.30;99.90
16040;DHT22;8124;48.634;8.120;2022-12-29T11:41:51;14.30;99.90
16040;DHT22;8124;48.634;8.120;2022-12-29T11:46:56;14.40;99.90
16040;DHT22;8124;48.634;8.120;2022-12-29T11:52:00;14.50;99.90
16040;DHT22;8124;48.634;8.120;2022-12-29T11:57:09;14.40;99.90
16040;DHT22;8124;48.634;8.120;2022-12-29T12:02:43;14.50;99.90
16040;DHT22;8124;48.634;8.120;2022-12-29T12:07:56;14.60;99.90
16040;DHT22;8124;48.634;8.120;2022-12-29T12:13:11;14.50;99.90
16040;DHT22;8124;48.634;8.120;2022-12-29T12:18:24;14.60;99.90
16040;DHT22;8124;48.634;8.120;2022-12-29T12:23:41;14.70;99.90
16040;DHT22;8124;48.634;8.120;2022-12-29T12:28:51;14.60;99.90
16040;DHT22;8124;48.634;8.120;2022-12-29T12:34:00;14.60;99.90
16040;DHT22;8124;48.634;8.120;2022-12-29T12:39:11;14.60;99.90
16040;DHT22;8124;48.634;8.120;2022-12-29T12:44:20;14.70;99.90
16040;DHT22;8124;48.634;8.120;2022-12-29T12:49:58;14.70;99.90
16040;DHT22;8124;48.634;8.120;2022-12-29T12:55:18;14.60;99.90
16040;DHT22;8124;48.634;8.120;2022-12-29T13:00:28;14.60;99.90
16040;DHT22;8124;48.634;8.120;2022-12-29T13:06:02;14.60;99.90
16040;DHT22;8124;48.634;8.120;2022-12-29T13:11:13;14.70;99.90
16040;DHT22;8124;48.634;8.120;2022-12-29T13:16:27;14.60;99.90
16040;DHT22;8124;48.634;8.120;2022-12-29T13:21:56;14.70;99.90
16040;DHT22;8124;48.634;8.120;2022-12-29T13:27:14;14.80;99.90
16040;DHT22;8124;48.634;8.120;2022-12-29T13:32:27;14.70;99.90
16040;DHT22;8124;48.634;8.120;2022-12-29T13:37:39;14.80;99.90
16040;DHT22;8124;48.634;8.120;2022-12-29T13:42:43;14.80;99.90
16040;DHT22;8124;48.634;8.120;2022-12-29T13:47:51;14.90;99.90
16040;DHT22;8124;48.634;8.120;2022-12-29T13:53:01;14.90;99.90
16040;DHT22;8124;48.634;8.120;2022-12-29T13:58:12;15.00;99.90
16040;DHT22;8124;48.634;8.120;2022-12-29T14:03:43;14.80;99.90
16040;DHT22;8124;48.634;8.120;2022-12-29T14:08:50;14.80;99.90
16040;DHT22;8124;48.634;8.120;2022-12-29T14:13:55;14.90;99.90
16040;DHT22;8124;48.634;8.120;2022-12-29T14:19:06;14.90;99.90
16040;DHT22;8124;48.634;8.120;2022-12-29T14:24:43;14.80;99.90
16040;DHT22;8124;48.634;8.120;2022-12-29T14:29:48;14.90;99.90
16040;DHT22;8124;48.634;8.120;2022-12-29T14:34:54;14.80;99.90
16040;DHT22;8124;48.634;8.120;2022-12-29T14:40:06;14.80;99.90
16040;DHT22;8124;48.634;8.120;2022-12-29T14:45:27;14.70;99.90
16040;DHT22;8124;48.634;8.120;2022-12-29T14:50:38;14.20;99.90
16040;DHT22;8124;48.634;8.120;2022-12-29T14:55:44;13.40;99.90
16040;DHT22;8124;48.634;8.120;2022-12-29T15:00:51;13.30;99.90
16040;DHT22;8124;48.634;8.120;2022-12-29T15:06:04;13.30;99.90
16040;DHT22;8124;48.634;8.120;2022-12-29T15:11:15;13.50;99.90
16040;DHT22;8124;48.634;8.120;2022-12-29T15:16:22;13.50;99.90
16040;DHT22;8124;48.634;8.120;2022-12-29T15:21:28;13.70;99.90
16040;DHT22;8124;48.634;8.120;2022-12-29T15:26:39;13.70;99.90
16040;DHT22;8124;48.634;8.120;2022-12-29T15:31:46;13.70;99.90
16040;DHT22;8124;48.634;8.120;2022-12-29T15:36:51;13.70;99.90
16040;DHT22;8124;48.634;8.120;2022-12-29T15:41:56;13.60;99.90
16040;DHT22;8124;48.634;8.120;2022-12-29T15:47:03;13.60;99.90
16040;DHT22;8124;48.634;8.120;2022-12-29T15:52:18;13.50;99.90
16040;DHT22;8124;48.634;8.120;2022-12-29T15:57:24;13.50;99.90
16040;DHT22;8124;48.634;8.120;2022-12-29T16:02:28;13.40;99.90
16040;DHT22;8124;48.634;8.120;2022-12-29T16:07:32;13.40;99.90
16040;DHT22;8124;48.634;8.120;2022-12-29T16:12:44;13.40;99.90
16040;DHT22;8124;48.634;8.120;2022-12-29T16:17:48;13.40;99.90
16040;DHT22;8124;48.634;8.120;2022-12-29T16:22:55;13.40;99.90
16040;DHT22;8124;48.634;8.120;2022-12-29T16:28:00;13.50;99.90
16040;DHT22;8124;48.634;8.120;2022-12-29T16:38:46;13.50;99.90
16040;DHT22;8124;48.634;8.120;2022-12-29T16:44:20;13.50;99.90
16040;DHT22;8124;48.634;8.120;2022-12-29T16:49:24;13.40;99.90
16040;DHT22;8124;48.634;8.120;2022-12-29T16:54:31;13.40;99.90
16040;DHT22;8124;48.634;8.120;2022-12-29T16:59:38;13.40;99.90
16040;DHT22;8124;48.634;8.120;2022-12-29T17:04:47;13.40;99.90
16040;DHT22;8124;48.634;8.120;2022-12-29T17:09:53;13.30;99.90
16040;DHT22;8124;48.634;8.120;2022-12-29T17:15:01;13.30;99.90
16040;DHT22;8124;48.634;8.120;2022-12-29T17:20:15;13.30;99.90
16040;DHT22;8124;48.634;8.120;2022-12-29T17:25:21;13.30;99.90
16040;DHT22;8124;48.634;8.120;2022-12-29T17:30:28;13.20;99.90
16040;DHT22;8124;48.634;8.120;2022-12-29T17:35:35;13.20;99.90
16040;DHT22;8124;48.634;8.120;2022-12-29T17:40:38;12.80;99.90
16040;DHT22;8124;48.634;8.120;2022-12-29T17:45:43;12.90;99.90
16040;DHT22;8124;48.634;8.120;2022-12-29T17:50:51;13.00;99.90
16040;DHT22;8124;48.634;8.120;2022-12-29T17:55:56;13.10;99.90
16040;DHT22;8124;48.634;8.120;2022-12-29T18:01:02;13.10;99.90
16040;DHT22;8124;48.634;8.120;2022-12-29T18:06:08;13.10;99.90
16040;DHT22;8124;48.634;8.120;2022-12-29T18:11:20;13.10;99.90
16040;DHT22;8124;48.634;8.120;2022-12-29T18:16:35;12.90;99.90
16040;DHT22;8124;48.634;8.120;2022-12-29T18:21:38;12.90;99.90
16040;DHT22;8124;48.634;8.120;2022-12-29T18:26:42;12.70;99.90
16040;DHT22;8124;48.634;8.120;2022-12-29T18:31:46;12.70;99.90
16040;DHT22;8124;48.634;8.120;2022-12-29T18:36:49;12.70;99.90
16040;DHT22;8124;48.634;8.120;2022-12-29T18:41:53;12.70;99.90
16040;DHT22;8124;48.634;8.120;2022-12-29T18:46:58;12.50;99.90
16040;DHT22;8124;48.634;8.120;2022-12-29T18:52:02;12.50;99.90
16040;DHT22;8124;48.634;8.120;2022-12-29T18:57:15;12.50;99.90
16040;DHT22;8124;48.634;8.120;2022-12-29T19:02:30;12.50;99.90
16040;DHT22;8124;48.634;8.120;2022-12-29T19:07:33;12.30;99.90
16040;DHT22;8124;48.634;8.120;2022-12-29T19:12:36;12.40;99.90
16040;DHT22;8124;48.634;8.120;2022-12-29T19:17:46;12.20;99.90
16040;DHT22;8124;48.634;8.120;2022-12-29T19:23:11;12.20;99.90
16040;DHT22;8124;48.634;8.120;2022-12-29T19:28:16;12.20;99.90
16040;DHT22;8124;48.634;8.120;2022-12-29T19:33:21;12.00;99.90
16040;DHT22;8124;48.634;8.120;2022-12-29T19:38:24;12.00;99.90
16040;DHT22;8124;48.634;8.120;2022-12-29T19:43:28;12.10;99.90
16040;DHT22;8124;48.634;8.120;2022-12-29T19:48:47;12.10;99.90
16040;DHT22;8124;48.634;8.120;2022-12-29T19:53:53;12.10;99.90
16040;DHT22;8124;48.634;8.120;2022-12-29T19:58:56;12.20;99.90
16040;DHT22;8124;48.634;8.120;2022-12-29T20:04:00;12.20;99.90
16040;DHT22;8124;48.634;8.120;2022-12-29T20:09:07;12.20;99.90
16040;DHT22;8124;48.634;8.120;2022-12-29T20:14:10;12.10;99.90
16040;DHT22;8124;48.634;8.120;2022-12-29T20:19:35;12.20;99.90
16040;DHT22;8124;48.634;8.120;2022-12-29T20:24:39;11.90;99.90
16040;DHT22;8124;48.634;8.120;2022-12-29T20:29:50;11.90;99.90
16040;DHT22;8124;48.634;8.120;2022-12-29T20:34:54;11.70;99.90
16040;DHT22;8124;48.634;8.120;2022-12-29T20:39:58;11.80;99.90
16040;DHT22;8124;48.634;8.120;2022-12-29T20:45:03;11.90;99.90
16040;DHT22;8124;48.634;8.120;2022-12-29T20:50:07;11.70;99.90
16040;DHT22;8124;48.634;8.120;2022-12-29T20:55:12;11.80;99.90
16040;DHT22;8124;48.634;8.120;2022-12-29T21:00:16;11.70;99.90
16040;DHT22;8124;48.634;8.120;2022-12-29T21:05:37;11.60;99.90
16040;DHT22;8124;48.634;8.120;2022-12-29T21:10:40;11.60;99.90
16040;DHT22;8124;48.634;8.120;2022-12-29T21:16:01;11.30;99.90
16040;DHT22;8124;48.634;8.120;2022-12-29T21:21:07;11.40;99.90
16040;DHT22;8124;48.634;8.120;2022-12-29T21:26:14;11.40;99.90
16040;DHT22;8124;48.634;8.120;2022-12-29T21:31:24;11.70;99.90
16040;DHT22;8124;48.634;8.120;2022-12-29T21:36:29;11.60;99.90
16040;DHT22;8124;48.634;8.120;2022-12-29T21:41:33;11.60;99.90
16040;DHT22;8124;48.634;8.120;2022-12-29T21:46:38;11.50;99.90
16040;DHT22;8124;48.634;8.120;2022-12-29T21:51:43;11.60;99.90
16040;DHT22;8124;48.634;8.120;2022-12-29T21:56:52;11.60;99.90
16040;DHT22;8124;48.634;8.120;2022-12-29T22:01:55;11.60;99.90
16040;DHT22;8124;48.634;8.120;2022-12-29T22:07:17;11.60;99.90
16040;DHT22;8124;48.634;8.120;2022-12-29T22:12:38;11.70;99.90
16040;DHT22;8124;48.634;8.120;2022-12-29T22:18:00;11.70;99.90
16040;DHT22;8124;48.634;8.120;2022-12-29T22:23:05;11.80;99.90
16040;DHT22;8124;48.634;8.120;2022-12-29T22:28:08;11.80;99.90
16040;DHT22;8124;48.634;8.120;2022-12-29T22:33:10;11.90;99.90
16040;DHT22;8124;48.634;8.120;2022-12-29T22:38:15;11.90;99.90
16040;DHT22;8124;48.634;8.120;2022-12-29T22:43:18;11.90;99.90
16040;DHT22;8124;48.634;8.120;2022-12-29T22:48:21;11.70;99.90
16040;DHT22;8124;48.634;8.120;2022-12-29T22:53:25;11.70;99.90
16040;DHT22;8124;48.634;8.120;2022-12-29T22:58:28;11.80;99.90
16040;DHT22;8124;48.634;8.120;2022-12-29T23:03:31;11.80;99.90
16040;DHT22;8124;48.634;8.120;2022-12-29T23:08:37;11.90;99.90
16040;DHT22;8124;48.634;8.120;2022-12-29T23:13:41;11.90;99.90
16040;DHT22;8124;48.634;8.120;2022-12-29T23:18:47;11.60;99.90
16040;DHT22;8124;48.634;8.120;2022-12-29T23:23:51;11.60;99.90
16040;DHT22;8124;48.634;8.120;2022-12-29T23:28:59;11.60;99.90
16040;DHT22;8124;48.634;8.120;2022-12-29T23:34:03;11.70;99.90
16040;DHT22;8124;48.634;8.120;2022-12-29T23:39:08;11.70;99.90
16040;DHT22;8124;48.634;8.120;2022-12-29T23:44:12;11.60;99.90
16040;DHT22;8124;48.634;8.120;2022-12-29T23:49:15;11.50;99.90
16040;DHT22;8124;48.634;8.120;2022-12-29T23:54:19;11.40;99.90
16040;DHT22;8124;48.634;8.120;2022-12-29T23:59:23;11.50;99.90
